sensor_id;sensor_type;location;lat;lon;timestamp;P1;durP1;ratioP1;P2;durP2;ratioP2
18999;SDS011;9633;50.980;13.850;2023-04-25T00:00:08;3.77;;;3.47;;
18999;SDS011;9633;50.980;13.850;2023-04-25T00:01:44;4.07;;;3.50;;
18999;SDS011;9633;50.980;13.850;2023-04-25T00:03:17;4.50;;;3.50;;
18999;SDS011;9633;50.980;13.850;2023-04-25T00:04:50;4.03;;;3.43;;
18999;SDS011;9633;50.980;13.850;2023-04-25T00:06:24;3.77;;;3.37;;
18999;SDS011;9633;50.980;13.850;2023-04-25T00:07:58;4.57;;;3.20;;
18999;SDS011;9633;50.980;13.850;2023-04-25T00:09:31;3.97;;;3.57;;
18999;SDS011;9633;50.980;13.850;2023-04-25T00:11:04;4.17;;;3.73;;
18999;SDS011;9633;50.980;13.850;2023-04-25T00:12:39;4.53;;;4.13;;
18999;SDS011;9633;50.980;13.850;2023-04-25T00:14:13;3.97;;;3.57;;
18999;SDS011;9633;50.980;13.850;2023-04-25T00:15:46;5.97;;;4.07;;
18999;SDS011;9633;50.980;13.850;2023-04-25T00:17:19;6.00;;;3.90;;
18999;SDS011;9633;50.980;13.850;2023-04-25T00:18:53;5.07;;;3.80;;
18999;SDS011;9633;50.980;13.850;2023-04-25T00:20:26;4.27;;;3.73;;
18999;SDS011;9633;50.980;13.850;2023-04-25T00:21:59;4.67;;;3.83;;
18999;SDS011;9633;50.980;13.850;2023-04-25T00:23:32;4.93;;;4.30;;
18999;SDS011;9633;50.980;13.850;2023-04-25T00:25:07;5.23;;;4.33;;
18999;SDS011;9633;50.980;13.850;2023-04-25T00:26:40;5.57;;;4.77;;
18999;SDS011;9633;50.980;13.850;2023-04-25T00:28:15;5.60;;;4.30;;
18999;SDS011;9633;50.980;13.850;2023-04-25T00:29:48;6.03;;;4.17;;
18999;SDS011;9633;50.980;13.850;2023-04-25T00:31:22;4.83;;;4.27;;
18999;SDS011;9633;50.980;13.850;2023-04-25T00:32:55;5.80;;;4.57;;
18999;SDS011;9633;50.980;13.850;2023-04-25T00:34:28;5.00;;;4.40;;
18999;SDS011;9633;50.980;13.850;2023-04-25T00:36:01;5.67;;;4.70;;
18999;SDS011;9633;50.980;13.850;2023-04-25T00:37:34;5.73;;;4.30;;
18999;SDS011;9633;50.980;13.850;2023-04-25T00:39:08;4.53;;;3.87;;
18999;SDS011;9633;50.980;13.850;2023-04-25T00:40:41;5.23;;;4.27;;
18999;SDS011;9633;50.980;13.850;2023-04-25T00:42:15;6.23;;;4.17;;
18999;SDS011;9633;50.980;13.850;2023-04-25T00:43:50;6.53;;;4.70;;
18999;SDS011;9633;50.980;13.850;2023-04-25T00:45:25;5.37;;;4.43;;
18999;SDS011;9633;50.980;13.850;2023-04-25T00:47:01;5.53;;;4.47;;
18999;SDS011;9633;50.980;13.850;2023-04-25T00:48:35;5.70;;;4.70;;
18999;SDS011;9633;50.980;13.850;2023-04-25T00:50:08;7.70;;;5.13;;
18999;SDS011;9633;50.980;13.850;2023-04-25T00:51:43;5.97;;;4.63;;
18999;SDS011;9633;50.980;13.850;2023-04-25T00:53:16;5.83;;;4.90;;
18999;SDS011;9633;50.980;13.850;2023-04-25T00:54:49;6.10;;;5.50;;
18999;SDS011;9633;50.980;13.850;2023-04-25T00:56:22;5.30;;;4.60;;
18999;SDS011;9633;50.980;13.850;2023-04-25T00:57:56;6.00;;;4.93;;
18999;SDS011;9633;50.980;13.850;2023-04-25T00:59:30;5.50;;;4.80;;
18999;SDS011;9633;50.980;13.850;2023-04-25T01:01:04;6.23;;;4.80;;
18999;SDS011;9633;50.980;13.850;2023-04-25T01:02:38;7.73;;;4.97;;
18999;SDS011;9633;50.980;13.850;2023-04-25T01:04:13;6.93;;;5.57;;
18999;SDS011;9633;50.980;13.850;2023-04-25T01:05:46;7.53;;;5.57;;
18999;SDS011;9633;50.980;13.850;2023-04-25T01:07:20;6.73;;;5.60;;
18999;SDS011;9633;50.980;13.850;2023-04-25T01:08:53;7.63;;;5.40;;
18999;SDS011;9633;50.980;13.850;2023-04-25T01:10:26;6.47;;;5.17;;
18999;SDS011;9633;50.980;13.850;2023-04-25T01:11:59;7.50;;;5.30;;
18999;SDS011;9633;50.980;13.850;2023-04-25T01:13:33;7.67;;;5.60;;
18999;SDS011;9633;50.980;13.850;2023-04-25T01:15:08;6.33;;;5.17;;
18999;SDS011;9633;50.980;13.850;2023-04-25T01:16:42;7.40;;;5.67;;
18999;SDS011;9633;50.980;13.850;2023-04-25T01:18:16;8.37;;;5.73;;
18999;SDS011;9633;50.980;13.850;2023-04-25T01:19:50;8.67;;;6.30;;
18999;SDS011;9633;50.980;13.850;2023-04-25T01:21:24;6.40;;;5.63;;
18999;SDS011;9633;50.980;13.850;2023-04-25T01:22:59;7.33;;;5.50;;
18999;SDS011;9633;50.980;13.850;2023-04-25T01:24:33;7.33;;;5.40;;
18999;SDS011;9633;50.980;13.850;2023-04-25T01:26:07;8.27;;;6.10;;
18999;SDS011;9633;50.980;13.850;2023-04-25T01:27:41;7.30;;;5.73;;
18999;SDS011;9633;50.980;13.850;2023-04-25T01:29:14;7.57;;;6.07;;
18999;SDS011;9633;50.980;13.850;2023-04-25T01:30:46;7.63;;;5.87;;
18999;SDS011;9633;50.980;13.850;2023-04-25T01:32:20;6.93;;;5.90;;
18999;SDS011;9633;50.980;13.850;2023-04-25T01:33:54;8.07;;;6.03;;
18999;SDS011;9633;50.980;13.850;2023-04-25T01:35:28;7.00;;;5.90;;
18999;SDS011;9633;50.980;13.850;2023-04-25T01:37:02;6.80;;;5.57;;
18999;SDS011;9633;50.980;13.850;2023-04-25T01:38:35;7.23;;;6.23;;
18999;SDS011;9633;50.980;13.850;2023-04-25T01:40:09;9.47;;;6.20;;
18999;SDS011;9633;50.980;13.850;2023-04-25T01:41:44;9.00;;;6.30;;
18999;SDS011;9633;50.980;13.850;2023-04-25T01:43:17;8.13;;;5.97;;
18999;SDS011;9633;50.980;13.850;2023-04-25T01:44:50;8.27;;;5.90;;
18999;SDS011;9633;50.980;13.850;2023-04-25T01:46:23;8.03;;;6.37;;
18999;SDS011;9633;50.980;13.850;2023-04-25T01:47:56;7.77;;;6.07;;
18999;SDS011;9633;50.980;13.850;2023-04-25T01:49:30;8.83;;;6.30;;
18999;SDS011;9633;50.980;13.850;2023-04-25T01:51:04;8.40;;;5.90;;
18999;SDS011;9633;50.980;13.850;2023-04-25T01:52:37;8.20;;;6.20;;
18999;SDS011;9633;50.980;13.850;2023-04-25T01:54:11;8.67;;;6.00;;
18999;SDS011;9633;50.980;13.850;2023-04-25T01:55:45;8.63;;;5.90;;
18999;SDS011;9633;50.980;13.850;2023-04-25T01:57:21;7.13;;;5.83;;
18999;SDS011;9633;50.980;13.850;2023-04-25T01:58:54;8.57;;;6.47;;
18999;SDS011;9633;50.980;13.850;2023-04-25T02:00:43;11.77;;;6.70;;
18999;SDS011;9633;50.980;13.850;2023-04-25T02:02:16;10.40;;;6.40;;
18999;SDS011;9633;50.980;13.850;2023-04-25T02:03:49;9.77;;;6.17;;
18999;SDS011;9633;50.980;13.850;2023-04-25T02:05:38;9.53;;;6.37;;
18999;SDS011;9633;50.980;13.850;2023-04-25T02:07:14;9.80;;;6.50;;
18999;SDS011;9633;50.980;13.850;2023-04-25T02:08:57;8.87;;;6.57;;
18999;SDS011;9633;50.980;13.850;2023-04-25T02:10:30;9.37;;;6.30;;
18999;SDS011;9633;50.980;13.850;2023-04-25T02:12:18;8.07;;;6.13;;
18999;SDS011;9633;50.980;13.850;2023-04-25T02:14:06;10.90;;;6.47;;
18999;SDS011;9633;50.980;13.850;2023-04-25T02:15:51;8.67;;;6.73;;
18999;SDS011;9633;50.980;13.850;2023-04-25T02:17:24;7.73;;;6.70;;
18999;SDS011;9633;50.980;13.850;2023-04-25T02:18:57;8.60;;;6.77;;
18999;SDS011;9633;50.980;13.850;2023-04-25T02:20:31;9.37;;;6.73;;
18999;SDS011;9633;50.980;13.850;2023-04-25T02:22:06;9.37;;;6.70;;
18999;SDS011;9633;50.980;13.850;2023-04-25T02:23:39;9.33;;;6.93;;
18999;SDS011;9633;50.980;13.850;2023-04-25T02:25:13;7.10;;;6.10;;
18999;SDS011;9633;50.980;13.850;2023-04-25T02:26:47;8.90;;;6.20;;
18999;SDS011;9633;50.980;13.850;2023-04-25T02:28:20;11.00;;;6.70;;
18999;SDS011;9633;50.980;13.850;2023-04-25T02:29:53;9.20;;;6.50;;
18999;SDS011;9633;50.980;13.850;2023-04-25T02:31:26;9.07;;;6.33;;
18999;SDS011;9633;50.980;13.850;2023-04-25T02:32:59;11.70;;;6.80;;
18999;SDS011;9633;50.980;13.850;2023-04-25T02:34:33;8.27;;;6.53;;
18999;SDS011;9633;50.980;13.850;2023-04-25T02:36:06;10.03;;;7.03;;
18999;SDS011;9633;50.980;13.850;2023-04-25T02:37:40;8.80;;;6.70;;
18999;SDS011;9633;50.980;13.850;2023-04-25T02:39:13;9.93;;;6.60;;
18999;SDS011;9633;50.980;13.850;2023-04-25T02:40:47;8.67;;;7.30;;
18999;SDS011;9633;50.980;13.850;2023-04-25T02:42:22;10.97;;;7.23;;
18999;SDS011;9633;50.980;13.850;2023-04-25T02:43:55;7.50;;;6.60;;
18999;SDS011;9633;50.980;13.850;2023-04-25T02:45:28;8.77;;;7.30;;
18999;SDS011;9633;50.980;13.850;2023-04-25T02:47:01;10.03;;;7.53;;
18999;SDS011;9633;50.980;13.850;2023-04-25T02:48:34;9.63;;;7.00;;
18999;SDS011;9633;50.980;13.850;2023-04-25T02:50:07;8.70;;;7.27;;
18999;SDS011;9633;50.980;13.850;2023-04-25T02:51:40;9.00;;;7.03;;
18999;SDS011;9633;50.980;13.850;2023-04-25T02:53:13;9.67;;;7.13;;
18999;SDS011;9633;50.980;13.850;2023-04-25T02:54:51;8.60;;;6.93;;
18999;SDS011;9633;50.980;13.850;2023-04-25T02:56:26;9.03;;;7.33;;
18999;SDS011;9633;50.980;13.850;2023-04-25T02:57:58;9.23;;;7.20;;
18999;SDS011;9633;50.980;13.850;2023-04-25T02:59:47;10.97;;;7.17;;
18999;SDS011;9633;50.980;13.850;2023-04-25T03:01:20;10.03;;;7.73;;
18999;SDS011;9633;50.980;13.850;2023-04-25T03:02:53;9.00;;;7.33;;
18999;SDS011;9633;50.980;13.850;2023-04-25T03:04:27;11.40;;;7.63;;
18999;SDS011;9633;50.980;13.850;2023-04-25T03:06:00;11.00;;;7.50;;
18999;SDS011;9633;50.980;13.850;2023-04-25T03:07:36;11.13;;;7.50;;
18999;SDS011;9633;50.980;13.850;2023-04-25T03:09:10;10.10;;;7.90;;
18999;SDS011;9633;50.980;13.850;2023-04-25T03:10:43;10.00;;;7.50;;
18999;SDS011;9633;50.980;13.850;2023-04-25T03:12:20;9.70;;;7.40;;
18999;SDS011;9633;50.980;13.850;2023-04-25T03:13:54;10.83;;;7.60;;
18999;SDS011;9633;50.980;13.850;2023-04-25T03:15:27;12.23;;;7.97;;
18999;SDS011;9633;50.980;13.850;2023-04-25T03:17:00;9.50;;;7.57;;
18999;SDS011;9633;50.980;13.850;2023-04-25T03:18:33;10.33;;;7.90;;
18999;SDS011;9633;50.980;13.850;2023-04-25T03:20:07;10.80;;;7.73;;
18999;SDS011;9633;50.980;13.850;2023-04-25T03:21:41;10.37;;;6.80;;
18999;SDS011;9633;50.980;13.850;2023-04-25T03:23:16;12.40;;;8.00;;
18999;SDS011;9633;50.980;13.850;2023-04-25T03:24:49;9.13;;;6.97;;
18999;SDS011;9633;50.980;13.850;2023-04-25T03:26:23;10.87;;;7.40;;
18999;SDS011;9633;50.980;13.850;2023-04-25T03:27:58;8.37;;;7.53;;
18999;SDS011;9633;50.980;13.850;2023-04-25T03:29:31;9.43;;;7.43;;
18999;SDS011;9633;50.980;13.850;2023-04-25T03:31:07;11.30;;;7.27;;
18999;SDS011;9633;50.980;13.850;2023-04-25T03:32:39;8.93;;;7.17;;
18999;SDS011;9633;50.980;13.850;2023-04-25T03:34:12;9.13;;;7.27;;
18999;SDS011;9633;50.980;13.850;2023-04-25T03:35:46;9.87;;;7.50;;
18999;SDS011;9633;50.980;13.850;2023-04-25T03:37:19;10.47;;;7.40;;
18999;SDS011;9633;50.980;13.850;2023-04-25T03:38:52;10.90;;;7.73;;
18999;SDS011;9633;50.980;13.850;2023-04-25T03:40:26;11.67;;;7.90;;
18999;SDS011;9633;50.980;13.850;2023-04-25T03:42:12;10.43;;;8.10;;
18999;SDS011;9633;50.980;13.850;2023-04-25T03:43:48;10.13;;;7.30;;
18999;SDS011;9633;50.980;13.850;2023-04-25T03:45:22;12.37;;;7.83;;
18999;SDS011;9633;50.980;13.850;2023-04-25T03:46:56;9.87;;;7.30;;
18999;SDS011;9633;50.980;13.850;2023-04-25T03:48:29;9.77;;;7.97;;
18999;SDS011;9633;50.980;13.850;2023-04-25T03:50:03;10.03;;;6.93;;
18999;SDS011;9633;50.980;13.850;2023-04-25T03:51:36;10.27;;;7.20;;
18999;SDS011;9633;50.980;13.850;2023-04-25T03:53:09;11.63;;;7.57;;
18999;SDS011;9633;50.980;13.850;2023-04-25T03:55:03;11.10;;;7.27;;
18999;SDS011;9633;50.980;13.850;2023-04-25T03:56:37;9.30;;;7.17;;
18999;SDS011;9633;50.980;13.850;2023-04-25T03:58:19;12.30;;;7.57;;
18999;SDS011;9633;50.980;13.850;2023-04-25T03:59:55;9.63;;;7.13;;
18999;SDS011;9633;50.980;13.850;2023-04-25T04:01:29;11.07;;;8.07;;
18999;SDS011;9633;50.980;13.850;2023-04-25T04:03:01;7.67;;;6.93;;
18999;SDS011;9633;50.980;13.850;2023-04-25T04:04:35;8.30;;;7.17;;
18999;SDS011;9633;50.980;13.850;2023-04-25T04:06:10;11.57;;;8.10;;
18999;SDS011;9633;50.980;13.850;2023-04-25T04:07:47;11.77;;;8.33;;
18999;SDS011;9633;50.980;13.850;2023-04-25T04:09:21;10.00;;;7.50;;
18999;SDS011;9633;50.980;13.850;2023-04-25T04:10:54;11.70;;;7.63;;
18999;SDS011;9633;50.980;13.850;2023-04-25T04:12:27;10.90;;;7.43;;
18999;SDS011;9633;50.980;13.850;2023-04-25T04:14:01;8.97;;;7.67;;
18999;SDS011;9633;50.980;13.850;2023-04-25T04:15:35;10.37;;;7.80;;
18999;SDS011;9633;50.980;13.850;2023-04-25T04:17:09;11.20;;;7.73;;
18999;SDS011;9633;50.980;13.850;2023-04-25T04:18:41;11.60;;;7.57;;
18999;SDS011;9633;50.980;13.850;2023-04-25T04:20:15;11.90;;;7.80;;
18999;SDS011;9633;50.980;13.850;2023-04-25T04:21:48;9.10;;;7.43;;
18999;SDS011;9633;50.980;13.850;2023-04-25T04:23:21;9.27;;;6.70;;
18999;SDS011;9633;50.980;13.850;2023-04-25T04:24:54;10.77;;;7.33;;
18999;SDS011;9633;50.980;13.850;2023-04-25T04:26:48;9.00;;;7.27;;
18999;SDS011;9633;50.980;13.850;2023-04-25T04:28:49;11.30;;;7.53;;
18999;SDS011;9633;50.980;13.850;2023-04-25T04:30:36;9.17;;;7.10;;
18999;SDS011;9633;50.980;13.850;2023-04-25T04:32:12;10.73;;;7.70;;
18999;SDS011;9633;50.980;13.850;2023-04-25T04:33:46;10.27;;;7.37;;
18999;SDS011;9633;50.980;13.850;2023-04-25T04:35:20;11.20;;;7.90;;
18999;SDS011;9633;50.980;13.850;2023-04-25T04:36:53;10.13;;;7.37;;
18999;SDS011;9633;50.980;13.850;2023-04-25T04:38:26;11.20;;;7.67;;
18999;SDS011;9633;50.980;13.850;2023-04-25T04:40:03;9.70;;;7.63;;
18999;SDS011;9633;50.980;13.850;2023-04-25T04:41:55;11.47;;;7.40;;
18999;SDS011;9633;50.980;13.850;2023-04-25T04:43:38;9.83;;;7.23;;
18999;SDS011;9633;50.980;13.850;2023-04-25T04:45:19;10.20;;;7.17;;
18999;SDS011;9633;50.980;13.850;2023-04-25T04:47:13;10.67;;;7.30;;
18999;SDS011;9633;50.980;13.850;2023-04-25T04:49:07;9.40;;;7.00;;
18999;SDS011;9633;50.980;13.850;2023-04-25T04:50:55;10.20;;;6.87;;
18999;SDS011;9633;50.980;13.850;2023-04-25T04:52:46;9.30;;;6.87;;
18999;SDS011;9633;50.980;13.850;2023-04-25T04:54:38;9.33;;;7.30;;
18999;SDS011;9633;50.980;13.850;2023-04-25T04:56:21;8.57;;;6.27;;
18999;SDS011;9633;50.980;13.850;2023-04-25T04:58:12;9.73;;;6.97;;
18999;SDS011;9633;50.980;13.850;2023-04-25T04:59:55;8.20;;;6.63;;
18999;SDS011;9633;50.980;13.850;2023-04-25T05:01:47;9.50;;;6.80;;
18999;SDS011;9633;50.980;13.850;2023-04-25T05:03:41;10.87;;;7.87;;
18999;SDS011;9633;50.980;13.850;2023-04-25T05:05:27;12.80;;;8.10;;
18999;SDS011;9633;50.980;13.850;2023-04-25T05:07:03;11.50;;;8.27;;
18999;SDS011;9633;50.980;13.850;2023-04-25T05:08:51;13.73;;;8.30;;
18999;SDS011;9633;50.980;13.850;2023-04-25T05:10:34;12.33;;;8.57;;
18999;SDS011;9633;50.980;13.850;2023-04-25T05:12:22;13.17;;;8.87;;
18999;SDS011;9633;50.980;13.850;2023-04-25T05:14:15;10.27;;;7.73;;
18999;SDS011;9633;50.980;13.850;2023-04-25T05:16:27;9.40;;;7.33;;
18999;SDS011;9633;50.980;13.850;2023-04-25T05:18:39;11.20;;;8.20;;
18999;SDS011;9633;50.980;13.850;2023-04-25T05:20:35;10.63;;;7.87;;
18999;SDS011;9633;50.980;13.850;2023-04-25T05:22:38;11.57;;;7.93;;
18999;SDS011;9633;50.980;13.850;2023-04-25T05:24:17;10.70;;;6.93;;
18999;SDS011;9633;50.980;13.850;2023-04-25T05:26:08;10.47;;;7.37;;
18999;SDS011;9633;50.980;13.850;2023-04-25T05:28:05;11.47;;;7.00;;
18999;SDS011;9633;50.980;13.850;2023-04-25T05:30:05;10.50;;;6.90;;
18999;SDS011;9633;50.980;13.850;2023-04-25T05:31:59;8.57;;;6.53;;
18999;SDS011;9633;50.980;13.850;2023-04-25T05:33:33;7.87;;;5.80;;
18999;SDS011;9633;50.980;13.850;2023-04-25T05:35:07;10.73;;;6.20;;
18999;SDS011;9633;50.980;13.850;2023-04-25T05:36:48;13.23;;;7.23;;
18999;SDS011;9633;50.980;13.850;2023-04-25T05:38:21;6.30;;;5.40;;
18999;SDS011;9633;50.980;13.850;2023-04-25T05:40:13;10.17;;;6.10;;
18999;SDS011;9633;50.980;13.850;2023-04-25T05:42:09;6.40;;;5.30;;
18999;SDS011;9633;50.980;13.850;2023-04-25T05:44:03;6.37;;;5.30;;
18999;SDS011;9633;50.980;13.850;2023-04-25T05:45:48;9.80;;;4.90;;
18999;SDS011;9633;50.980;13.850;2023-04-25T05:47:47;9.00;;;5.00;;
18999;SDS011;9633;50.980;13.850;2023-04-25T05:49:42;6.53;;;4.80;;
18999;SDS011;9633;50.980;13.850;2023-04-25T05:51:44;5.17;;;3.90;;
18999;SDS011;9633;50.980;13.850;2023-04-25T05:53:54;5.37;;;4.30;;
18999;SDS011;9633;50.980;13.850;2023-04-25T05:55:27;4.43;;;3.73;;
18999;SDS011;9633;50.980;13.850;2023-04-25T05:57:02;5.40;;;4.43;;
18999;SDS011;9633;50.980;13.850;2023-04-25T05:58:36;4.67;;;4.17;;
18999;SDS011;9633;50.980;13.850;2023-04-25T06:00:09;4.90;;;3.53;;
18999;SDS011;9633;50.980;13.850;2023-04-25T06:01:45;4.33;;;3.87;;
18999;SDS011;9633;50.980;13.850;2023-04-25T06:03:19;4.13;;;3.57;;
18999;SDS011;9633;50.980;13.850;2023-04-25T06:04:53;7.40;;;4.27;;
18999;SDS011;9633;50.980;13.850;2023-04-25T06:06:27;7.30;;;4.17;;
18999;SDS011;9633;50.980;13.850;2023-04-25T06:08:02;5.60;;;4.10;;
18999;SDS011;9633;50.980;13.850;2023-04-25T06:09:37;7.20;;;4.37;;
18999;SDS011;9633;50.980;13.850;2023-04-25T06:11:13;6.30;;;4.47;;
18999;SDS011;9633;50.980;13.850;2023-04-25T06:12:46;6.43;;;4.33;;
18999;SDS011;9633;50.980;13.850;2023-04-25T06:14:21;6.80;;;4.40;;
18999;SDS011;9633;50.980;13.850;2023-04-25T06:15:55;7.50;;;4.50;;
18999;SDS011;9633;50.980;13.850;2023-04-25T06:17:29;6.10;;;4.43;;
18999;SDS011;9633;50.980;13.850;2023-04-25T06:19:04;5.83;;;4.40;;
18999;SDS011;9633;50.980;13.850;2023-04-25T06:20:37;5.37;;;4.40;;
18999;SDS011;9633;50.980;13.850;2023-04-25T06:22:10;6.77;;;4.57;;
18999;SDS011;9633;50.980;13.850;2023-04-25T06:23:45;6.70;;;5.07;;
18999;SDS011;9633;50.980;13.850;2023-04-25T06:25:25;6.30;;;4.60;;
18999;SDS011;9633;50.980;13.850;2023-04-25T06:26:59;7.60;;;5.17;;
18999;SDS011;9633;50.980;13.850;2023-04-25T06:28:32;10.20;;;4.90;;
18999;SDS011;9633;50.980;13.850;2023-04-25T06:30:06;7.70;;;5.17;;
18999;SDS011;9633;50.980;13.850;2023-04-25T06:31:40;5.07;;;4.40;;
18999;SDS011;9633;50.980;13.850;2023-04-25T06:33:13;6.40;;;4.37;;
18999;SDS011;9633;50.980;13.850;2023-04-25T06:34:47;6.97;;;4.70;;
18999;SDS011;9633;50.980;13.850;2023-04-25T06:36:20;6.80;;;4.67;;
18999;SDS011;9633;50.980;13.850;2023-04-25T06:37:58;8.63;;;5.57;;
18999;SDS011;9633;50.980;13.850;2023-04-25T06:39:33;8.03;;;5.00;;
18999;SDS011;9633;50.980;13.850;2023-04-25T06:41:10;7.57;;;4.70;;
18999;SDS011;9633;50.980;13.850;2023-04-25T06:42:43;9.10;;;5.17;;
18999;SDS011;9633;50.980;13.850;2023-04-25T06:44:35;7.20;;;5.17;;
18999;SDS011;9633;50.980;13.850;2023-04-25T06:46:11;10.33;;;5.00;;
18999;SDS011;9633;50.980;13.850;2023-04-25T06:47:48;6.70;;;4.27;;
18999;SDS011;9633;50.980;13.850;2023-04-25T06:49:22;8.70;;;4.53;;
18999;SDS011;9633;50.980;13.850;2023-04-25T06:50:55;7.30;;;4.80;;
18999;SDS011;9633;50.980;13.850;2023-04-25T06:52:30;5.63;;;5.07;;
18999;SDS011;9633;50.980;13.850;2023-04-25T06:54:05;9.03;;;5.33;;
18999;SDS011;9633;50.980;13.850;2023-04-25T06:55:45;7.40;;;5.00;;
18999;SDS011;9633;50.980;13.850;2023-04-25T06:57:24;7.47;;;5.50;;
18999;SDS011;9633;50.980;13.850;2023-04-25T06:59:00;7.10;;;5.30;;
18999;SDS011;9633;50.980;13.850;2023-04-25T07:00:51;8.47;;;5.83;;
18999;SDS011;9633;50.980;13.850;2023-04-25T07:02:27;7.23;;;4.80;;
18999;SDS011;9633;50.980;13.850;2023-04-25T07:04:01;8.10;;;5.53;;
18999;SDS011;9633;50.980;13.850;2023-04-25T07:05:37;8.50;;;5.40;;
18999;SDS011;9633;50.980;13.850;2023-04-25T07:07:10;11.77;;;5.73;;
18999;SDS011;9633;50.980;13.850;2023-04-25T07:08:50;12.97;;;6.43;;
18999;SDS011;9633;50.980;13.850;2023-04-25T07:10:23;8.87;;;6.10;;
18999;SDS011;9633;50.980;13.850;2023-04-25T07:11:57;10.27;;;6.33;;
18999;SDS011;9633;50.980;13.850;2023-04-25T07:13:32;9.07;;;5.93;;
18999;SDS011;9633;50.980;13.850;2023-04-25T07:15:05;8.33;;;5.57;;
18999;SDS011;9633;50.980;13.850;2023-04-25T07:16:43;8.33;;;5.43;;
18999;SDS011;9633;50.980;13.850;2023-04-25T07:18:16;7.77;;;5.43;;
18999;SDS011;9633;50.980;13.850;2023-04-25T07:19:50;7.97;;;5.70;;
18999;SDS011;9633;50.980;13.850;2023-04-25T07:21:23;10.50;;;5.57;;
18999;SDS011;9633;50.980;13.850;2023-04-25T07:22:57;7.70;;;5.90;;
18999;SDS011;9633;50.980;13.850;2023-04-25T07:24:30;8.63;;;5.30;;
18999;SDS011;9633;50.980;13.850;2023-04-25T07:26:04;9.17;;;5.77;;
18999;SDS011;9633;50.980;13.850;2023-04-25T07:27:37;7.43;;;5.83;;
18999;SDS011;9633;50.980;13.850;2023-04-25T07:29:21;9.37;;;6.10;;
18999;SDS011;9633;50.980;13.850;2023-04-25T07:30:54;10.87;;;5.77;;
18999;SDS011;9633;50.980;13.850;2023-04-25T07:32:29;7.23;;;5.50;;
18999;SDS011;9633;50.980;13.850;2023-04-25T07:34:02;6.87;;;5.47;;
18999;SDS011;9633;50.980;13.850;2023-04-25T07:35:36;8.47;;;5.37;;
18999;SDS011;9633;50.980;13.850;2023-04-25T07:37:10;9.33;;;5.60;;
18999;SDS011;9633;50.980;13.850;2023-04-25T07:38:56;8.87;;;6.03;;
18999;SDS011;9633;50.980;13.850;2023-04-25T07:40:29;7.43;;;5.60;;
18999;SDS011;9633;50.980;13.850;2023-04-25T07:42:09;9.93;;;5.27;;
18999;SDS011;9633;50.980;13.850;2023-04-25T07:43:45;7.87;;;4.97;;
18999;SDS011;9633;50.980;13.850;2023-04-25T07:45:19;5.60;;;4.37;;
18999;SDS011;9633;50.980;13.850;2023-04-25T07:46:53;6.87;;;4.63;;
18999;SDS011;9633;50.980;13.850;2023-04-25T07:48:26;6.90;;;4.30;;
18999;SDS011;9633;50.980;13.850;2023-04-25T07:50:00;6.10;;;4.13;;
18999;SDS011;9633;50.980;13.850;2023-04-25T07:51:34;6.83;;;3.43;;
18999;SDS011;9633;50.980;13.850;2023-04-25T07:53:12;7.30;;;3.77;;
18999;SDS011;9633;50.980;13.850;2023-04-25T07:54:52;6.30;;;4.00;;
18999;SDS011;9633;50.980;13.850;2023-04-25T07:56:32;5.13;;;3.53;;
18999;SDS011;9633;50.980;13.850;2023-04-25T07:58:20;5.27;;;3.60;;
18999;SDS011;9633;50.980;13.850;2023-04-25T07:59:58;6.47;;;3.77;;
18999;SDS011;9633;50.980;13.850;2023-04-25T08:01:34;6.20;;;3.77;;
18999;SDS011;9633;50.980;13.850;2023-04-25T08:03:10;5.23;;;3.73;;
18999;SDS011;9633;50.980;13.850;2023-04-25T08:04:46;5.07;;;3.07;;
18999;SDS011;9633;50.980;13.850;2023-04-25T08:06:21;4.63;;;3.53;;
18999;SDS011;9633;50.980;13.850;2023-04-25T08:08:08;7.27;;;3.57;;
18999;SDS011;9633;50.980;13.850;2023-04-25T08:09:41;6.00;;;3.90;;
18999;SDS011;9633;50.980;13.850;2023-04-25T08:11:22;5.80;;;3.90;;
18999;SDS011;9633;50.980;13.850;2023-04-25T08:12:56;7.97;;;4.23;;
18999;SDS011;9633;50.980;13.850;2023-04-25T08:14:29;6.63;;;4.37;;
18999;SDS011;9633;50.980;13.850;2023-04-25T08:16:08;6.47;;;3.57;;
18999;SDS011;9633;50.980;13.850;2023-04-25T08:17:43;5.17;;;3.50;;
18999;SDS011;9633;50.980;13.850;2023-04-25T08:19:17;6.03;;;3.43;;
18999;SDS011;9633;50.980;13.850;2023-04-25T08:20:50;5.83;;;3.60;;
18999;SDS011;9633;50.980;13.850;2023-04-25T08:22:24;5.77;;;3.40;;
18999;SDS011;9633;50.980;13.850;2023-04-25T08:24:10;5.27;;;4.10;;
18999;SDS011;9633;50.980;13.850;2023-04-25T08:25:44;5.13;;;3.40;;
18999;SDS011;9633;50.980;13.850;2023-04-25T08:27:20;5.47;;;3.60;;
18999;SDS011;9633;50.980;13.850;2023-04-25T08:28:54;5.03;;;2.97;;
18999;SDS011;9633;50.980;13.850;2023-04-25T08:30:27;6.63;;;3.17;;
18999;SDS011;9633;50.980;13.850;2023-04-25T08:32:01;6.27;;;3.07;;
18999;SDS011;9633;50.980;13.850;2023-04-25T08:33:36;5.23;;;2.90;;
18999;SDS011;9633;50.980;13.850;2023-04-25T08:35:36;5.00;;;2.80;;
18999;SDS011;9633;50.980;13.850;2023-04-25T08:37:10;6.30;;;3.30;;
18999;SDS011;9633;50.980;13.850;2023-04-25T08:38:59;5.10;;;3.57;;
18999;SDS011;9633;50.980;13.850;2023-04-25T08:40:32;4.60;;;3.27;;
18999;SDS011;9633;50.980;13.850;2023-04-25T08:42:18;6.23;;;2.80;;
18999;SDS011;9633;50.980;13.850;2023-04-25T08:43:53;5.00;;;3.10;;
18999;SDS011;9633;50.980;13.850;2023-04-25T08:45:31;3.87;;;3.40;;
18999;SDS011;9633;50.980;13.850;2023-04-25T08:47:06;4.27;;;2.40;;
18999;SDS011;9633;50.980;13.850;2023-04-25T08:48:47;4.33;;;2.70;;
18999;SDS011;9633;50.980;13.850;2023-04-25T08:50:24;7.10;;;2.73;;
18999;SDS011;9633;50.980;13.850;2023-04-25T08:51:59;4.17;;;2.80;;
18999;SDS011;9633;50.980;13.850;2023-04-25T08:53:33;7.03;;;3.53;;
18999;SDS011;9633;50.980;13.850;2023-04-25T08:55:09;6.63;;;3.00;;
18999;SDS011;9633;50.980;13.850;2023-04-25T08:56:45;4.97;;;3.37;;
18999;SDS011;9633;50.980;13.850;2023-04-25T08:58:20;5.03;;;3.47;;
18999;SDS011;9633;50.980;13.850;2023-04-25T08:59:54;5.70;;;3.50;;
18999;SDS011;9633;50.980;13.850;2023-04-25T09:01:29;5.97;;;3.73;;
18999;SDS011;9633;50.980;13.850;2023-04-25T09:03:02;5.43;;;3.60;;
18999;SDS011;9633;50.980;13.850;2023-04-25T09:04:38;6.47;;;4.53;;
18999;SDS011;9633;50.980;13.850;2023-04-25T09:06:12;5.53;;;3.53;;
18999;SDS011;9633;50.980;13.850;2023-04-25T09:07:47;5.70;;;4.03;;
18999;SDS011;9633;50.980;13.850;2023-04-25T09:09:21;6.30;;;4.27;;
18999;SDS011;9633;50.980;13.850;2023-04-25T09:10:55;5.57;;;4.13;;
18999;SDS011;9633;50.980;13.850;2023-04-25T09:12:29;8.97;;;4.07;;
18999;SDS011;9633;50.980;13.850;2023-04-25T09:14:12;4.73;;;4.03;;
18999;SDS011;9633;50.980;13.850;2023-04-25T09:16:02;6.97;;;3.87;;
18999;SDS011;9633;50.980;13.850;2023-04-25T09:18:03;6.20;;;3.90;;
18999;SDS011;9633;50.980;13.850;2023-04-25T09:19:43;5.40;;;3.80;;
18999;SDS011;9633;50.980;13.850;2023-04-25T09:21:27;3.97;;;3.50;;
18999;SDS011;9633;50.980;13.850;2023-04-25T09:23:03;5.43;;;3.57;;
18999;SDS011;9633;50.980;13.850;2023-04-25T09:24:42;5.53;;;4.33;;
18999;SDS011;9633;50.980;13.850;2023-04-25T09:26:18;7.40;;;4.73;;
18999;SDS011;9633;50.980;13.850;2023-04-25T09:27:54;5.67;;;4.53;;
18999;SDS011;9633;50.980;13.850;2023-04-25T09:29:33;5.83;;;4.17;;
18999;SDS011;9633;50.980;13.850;2023-04-25T09:31:07;6.20;;;5.07;;
18999;SDS011;9633;50.980;13.850;2023-04-25T09:32:50;6.33;;;4.80;;
18999;SDS011;9633;50.980;13.850;2023-04-25T09:34:23;6.87;;;5.27;;
18999;SDS011;9633;50.980;13.850;2023-04-25T09:36:03;8.80;;;5.33;;
18999;SDS011;9633;50.980;13.850;2023-04-25T09:37:57;9.67;;;5.80;;
18999;SDS011;9633;50.980;13.850;2023-04-25T09:39:51;7.50;;;5.30;;
18999;SDS011;9633;50.980;13.850;2023-04-25T09:41:26;9.47;;;5.30;;
18999;SDS011;9633;50.980;13.850;2023-04-25T09:43:03;10.23;;;6.10;;
18999;SDS011;9633;50.980;13.850;2023-04-25T09:44:42;7.40;;;6.07;;